To NAV CANADA Home Page Login to a new session Search on AWWS site Feedback and Comments Disclaimer Vers la page française équivalente Tips FAQ What's new on the site To the Forecasts and Observations / NOTAM section To "File a Flight Plan" website Publications and other links Update of the User's profile FIC Telephone Numbers My Weather Data Folder Route Weather Data Regional Weather Data Local Weather Data To the Forecasts and Observations / NOTAM section
Request Generated 09/24/2016 at 22:33:10 UTC . Weather information available at that time is displayed.

METAR/TAF

SLAVE LAKE/AB    (show WxCam)

METAR CYZH 242200Z AUTO 29017G26KT 9SM SCT065 15/01 A3002 RMK SLP177
DENSITY ALT 2200FT=
METAR CYZH 242100Z AUTO 30015G20KT 9SM CLR 14/04 A3002 RMK SLP180
DENSITY ALT 2000FT=
METAR CYZH 242000Z AUTO 30015G21KT 9SM CLR 14/05 A3002 RMK SLP181
DENSITY ALT 2100FT=

TAF CYZH 241843Z 2419/2507 28022G32KT P6SM FEW060
BECMG 2503/2505 28015KT
RMK FCST BASED ON AUTO OBS. NXT FCST BY 250100Z=
Your time UTC time
Weather data provided by Environment Canada and NAV CANADA